createdAt,value
2018-10-12T00:00:53.347Z,10.60
2018-10-12T00:03:21.077Z,9.37
2018-10-12T00:05:48.619Z,9.90
2018-10-12T00:08:16.162Z,9.47
2018-10-12T00:54:23.644Z,8.50
2018-10-12T00:56:51.165Z,8.90
2018-10-12T00:59:18.733Z,8.30
2018-10-12T01:01:46.337Z,8.40
2018-10-12T01:04:13.858Z,8.20
2018-10-12T01:06:41.558Z,8.47
2018-10-12T01:09:09.069Z,8.33
2018-10-12T01:11:36.597Z,7.93
2018-10-12T01:14:04.142Z,7.70
2018-10-12T01:16:31.679Z,7.78
2018-10-12T01:18:59.373Z,8.30
2018-10-12T01:21:26.938Z,8.00
2018-10-12T01:23:54.568Z,7.07
2018-10-12T01:26:22.139Z,8.20
2018-10-12T01:28:49.716Z,7.50
2018-10-12T01:31:17.248Z,8.00
2018-10-12T01:33:44.780Z,7.43
2018-10-12T01:36:12.580Z,7.30
2018-10-12T01:38:40.204Z,7.83
2018-10-12T01:41:07.718Z,7.23
2018-10-12T01:43:35.236Z,7.80
2018-10-12T01:46:02.805Z,7.50
2018-10-12T01:48:30.359Z,7.27
2018-10-12T01:50:57.935Z,7.03
2018-10-12T01:53:25.497Z,7.27
2018-10-12T01:55:53.026Z,7.53
2018-10-12T01:58:20.578Z,7.30
2018-10-12T02:00:48.104Z,7.27
2018-10-12T02:03:15.673Z,6.60
2018-10-12T02:05:43.216Z,6.63
2018-10-12T02:08:10.769Z,7.03
2018-10-12T02:10:38.368Z,7.05
2018-10-12T02:13:05.927Z,6.47
2018-10-12T02:15:33.496Z,6.47
2018-10-12T02:18:01.039Z,7.10
2018-10-12T02:20:28.662Z,6.57
2018-10-12T02:22:56.184Z,5.70
2018-10-12T02:25:23.750Z,6.47
2018-10-12T02:27:51.265Z,6.77
2018-10-12T02:30:18.833Z,6.33
2018-10-12T02:32:46.349Z,6.30
2018-10-12T02:35:13.917Z,6.53
2018-10-12T02:37:41.482Z,6.07
2018-10-12T02:40:09.039Z,6.63
2018-10-12T02:42:36.566Z,6.50
2018-10-12T02:45:04.114Z,6.97
2018-10-12T02:47:31.632Z,6.00
2018-10-12T02:49:59.199Z,6.17
2018-10-12T02:52:26.704Z,6.57
2018-10-12T02:54:54.305Z,6.40
2018-10-12T02:57:21.884Z,5.97
2018-10-12T02:59:49.441Z,6.30
2018-10-12T03:02:16.978Z,5.70
2018-10-12T03:04:44.536Z,5.73
2018-10-12T03:07:12.058Z,6.00
2018-10-12T03:09:39.685Z,6.80
2018-10-12T03:12:07.394Z,6.10
2018-10-12T03:14:34.946Z,6.33
2018-10-12T03:17:02.480Z,5.73
2018-10-12T03:19:30.041Z,6.13
2018-10-12T03:21:57.609Z,5.77
2018-10-12T03:24:25.114Z,6.00
2018-10-12T03:26:52.787Z,6.03
2018-10-12T03:29:20.316Z,6.93
2018-10-12T03:31:47.858Z,6.30
2018-10-12T03:34:15.436Z,5.83
2018-10-12T03:36:42.965Z,5.83
2018-10-12T03:39:10.527Z,6.00
2018-10-12T03:41:38.059Z,5.83
2018-10-12T03:44:05.643Z,5.87
2018-10-12T03:46:33.185Z,6.30
2018-10-12T03:49:00.708Z,5.87
2018-10-12T03:51:28.290Z,5.60
2018-10-12T03:53:56.142Z,6.23
2018-10-12T03:56:23.693Z,5.70
2018-10-12T03:58:51.221Z,5.80
2018-10-12T04:01:18.820Z,5.70
2018-10-12T04:03:46.365Z,5.53
2018-10-12T04:06:13.945Z,5.60
2018-10-12T04:08:41.464Z,5.67
2018-10-12T04:11:09.024Z,5.80
2018-10-12T04:13:36.565Z,6.30
2018-10-12T04:16:04.155Z,5.77
2018-10-12T04:18:31.676Z,5.40
2018-10-12T04:20:59.208Z,5.53
2018-10-12T04:23:26.763Z,5.43
2018-10-12T04:25:54.555Z,5.80
2018-10-12T04:28:22.107Z,5.20
2018-10-12T04:30:49.639Z,5.27
2018-10-12T04:33:17.178Z,5.73
2018-10-12T04:35:44.704Z,5.50
2018-10-12T04:38:12.305Z,5.18
2018-10-12T04:40:39.894Z,5.28
2018-10-12T04:43:07.485Z,5.40
2018-10-12T04:45:35.013Z,6.00
2018-10-12T04:48:02.577Z,5.53
2018-10-12T04:50:30.101Z,5.83
2018-10-12T04:52:57.665Z,5.40
2018-10-12T04:55:25.197Z,5.77
2018-10-12T04:57:52.752Z,5.30
2018-10-12T05:00:20.269Z,5.23
2018-10-12T05:02:47.820Z,6.23
2018-10-12T05:05:15.376Z,5.70
2018-10-12T05:07:42.992Z,5.43
2018-10-12T05:10:10.503Z,5.03
2018-10-12T05:12:38.015Z,5.10
2018-10-12T05:15:05.584Z,6.13
2018-10-12T05:17:33.119Z,5.40
2018-10-12T05:20:00.678Z,5.70
2018-10-12T05:22:28.199Z,5.43
2018-10-12T05:24:55.750Z,5.60
2018-10-12T05:27:23.301Z,5.40
2018-10-12T05:29:50.852Z,5.60
2018-10-12T05:32:18.456Z,5.43
2018-10-12T05:34:46.147Z,5.70
2018-10-12T05:37:13.673Z,6.40
2018-10-12T05:39:41.231Z,5.60
2018-10-12T05:42:08.748Z,6.00
2018-10-12T05:44:36.303Z,5.83
2018-10-12T05:47:03.921Z,5.40
2018-10-12T05:49:41.248Z,5.60
2018-10-12T05:52:08.798Z,5.80
2018-10-12T05:54:36.368Z,5.30
2018-10-12T05:57:03.889Z,5.93
2018-10-12T05:59:31.460Z,5.70
2018-10-12T06:01:58.974Z,5.73
2018-10-12T06:04:26.525Z,5.40
2018-10-12T06:06:54.197Z,5.20
2018-10-12T06:09:21.786Z,5.43
2018-10-12T06:11:49.353Z,5.40
2018-10-12T06:14:16.899Z,5.63
2018-10-12T06:16:44.423Z,5.50
2018-10-12T06:19:11.974Z,5.97
2018-10-12T06:21:39.729Z,5.80
2018-10-12T06:24:07.171Z,6.27
2018-10-12T06:26:34.716Z,5.53
2018-10-12T06:29:02.312Z,6.00
2018-10-12T06:31:29.829Z,5.97
2018-10-12T06:33:57.524Z,6.35
2018-10-12T06:36:25.054Z,6.10
2018-10-12T06:38:52.651Z,6.60
2018-10-12T06:41:20.209Z,6.00
2018-10-12T06:43:47.791Z,6.63
2018-10-12T06:46:15.376Z,6.07
2018-10-12T06:48:43.193Z,6.53
2018-10-12T06:51:10.712Z,5.97
2018-10-12T06:53:38.251Z,6.07
2018-10-12T06:56:05.806Z,5.93
2018-10-12T06:58:33.336Z,5.90
2018-10-12T07:01:00.900Z,6.00
2018-10-12T07:03:28.410Z,6.13
2018-10-12T07:05:55.995Z,5.60
2018-10-12T07:08:23.513Z,6.03
2018-10-12T07:10:51.114Z,6.00
2018-10-12T07:13:18.641Z,5.70
2018-10-12T07:15:46.158Z,5.17
2018-10-12T07:18:13.718Z,5.13
2018-10-12T07:20:41.277Z,5.37
2018-10-12T07:23:08.807Z,5.50
2018-10-12T07:25:36.410Z,4.90
2018-10-12T07:28:03.942Z,5.10
2018-10-12T07:30:31.517Z,5.40
2018-10-12T07:32:59.054Z,4.67
2018-10-12T07:35:26.614Z,4.70
2018-10-12T07:37:54.187Z,4.93
2018-10-12T07:40:21.918Z,4.97
2018-10-12T07:42:49.879Z,5.55
2018-10-12T07:45:17.567Z,5.20
2018-10-12T07:47:45.502Z,5.50
2018-10-12T07:50:14.222Z,4.90
2018-10-12T07:52:43.102Z,4.83
2018-10-12T07:55:11.087Z,4.82
2018-10-12T07:57:40.096Z,4.93
2018-10-12T08:00:08.361Z,4.50
2018-10-12T08:02:37.115Z,4.67
2018-10-12T08:05:05.960Z,4.70
2018-10-12T08:07:34.427Z,4.53
2018-10-12T08:10:02.455Z,5.00
2018-10-12T08:12:30.289Z,4.35
2018-10-12T08:14:58.432Z,4.33
2018-10-12T08:17:26.485Z,3.97
2018-10-12T08:19:55.234Z,3.90
2018-10-12T08:22:23.868Z,4.18
2018-10-12T08:24:52.523Z,3.57
2018-10-12T08:27:24.074Z,4.07
2018-10-12T08:29:52.107Z,3.67
2018-10-12T08:32:21.149Z,3.40
2018-10-12T08:34:49.794Z,3.60
2018-10-12T08:37:17.718Z,3.57
2018-10-12T08:39:45.544Z,3.30
2018-10-12T08:42:13.434Z,3.23
2018-10-12T08:44:41.421Z,3.00
2018-10-12T08:47:09.493Z,3.00
2018-10-12T08:49:37.637Z,2.80
2018-10-12T08:52:05.741Z,3.07
2018-10-12T08:54:33.422Z,3.20
2018-10-12T08:57:01.412Z,3.17
2018-10-12T08:59:30.080Z,2.97
2018-10-12T09:01:58.190Z,2.53
2018-10-12T09:04:27.850Z,3.28
2018-10-12T09:06:56.764Z,2.70
2018-10-12T09:09:24.715Z,3.03
2018-10-12T09:11:53.149Z,3.00
2018-10-12T09:14:21.044Z,2.80
2018-10-12T09:16:48.773Z,3.60
2018-10-12T09:19:16.307Z,3.00
2018-10-12T09:21:44.326Z,2.80
2018-10-12T09:24:12.394Z,2.60
2018-10-12T09:26:40.311Z,2.83
2018-10-12T09:29:08.044Z,2.77
2018-10-12T09:31:36.055Z,2.60
2018-10-12T09:34:04.195Z,2.77
2018-10-12T09:36:32.180Z,3.40
2018-10-12T09:39:00.057Z,2.67
2018-10-12T09:41:30.033Z,2.87
2018-10-12T09:43:58.839Z,3.08
2018-10-12T09:46:29.204Z,2.73
2018-10-12T09:48:57.768Z,2.60
2018-10-12T09:51:26.831Z,2.60
2018-10-12T09:53:54.573Z,3.00
2018-10-12T09:56:22.213Z,3.00
2018-10-12T09:58:49.815Z,2.63
2018-10-12T10:01:32.411Z,2.70
2018-10-12T10:03:59.948Z,2.70
2018-10-12T10:06:28.941Z,2.80
2018-10-12T10:08:57.664Z,2.40
2018-10-12T10:11:27.088Z,2.60
2018-10-12T10:13:54.907Z,2.10
2018-10-12T10:16:23.513Z,2.37
2018-10-12T10:18:52.044Z,2.43
2018-10-12T10:21:21.047Z,2.80
2018-10-12T10:23:48.965Z,2.77
2018-10-12T10:26:17.820Z,2.63
2018-10-12T10:28:45.829Z,2.33
2018-10-12T10:31:13.776Z,2.37
2018-10-12T10:33:41.808Z,2.50
2018-10-12T10:36:09.841Z,2.50
2018-10-12T10:38:38.841Z,2.70
2018-10-12T10:41:06.889Z,2.50
2018-10-12T10:43:34.700Z,6.10
2018-10-12T10:46:02.285Z,2.40
2018-10-12T10:48:30.173Z,2.10
2018-10-12T10:50:58.059Z,1.93
2018-10-12T10:53:26.460Z,2.23
2018-10-12T10:55:55.094Z,2.03
2018-10-12T10:58:23.995Z,2.50
2018-10-12T11:00:54.778Z,2.43
2018-10-12T11:03:25.127Z,2.83
2018-10-12T11:05:52.918Z,2.70
2018-10-12T11:08:21.183Z,2.40
2018-10-12T11:10:49.041Z,2.30
2018-10-12T11:13:18.487Z,2.80
2018-10-12T11:15:47.317Z,2.30
2018-10-12T11:18:16.133Z,2.20
2018-10-12T11:20:43.986Z,2.30
2018-10-12T11:23:11.974Z,3.20
2018-10-12T11:25:39.835Z,2.10
2018-10-12T11:28:08.022Z,2.30
2018-10-12T11:30:35.875Z,2.13
2018-10-12T11:33:03.758Z,2.20
2018-10-12T11:35:31.305Z,2.00
2018-10-12T11:37:58.845Z,2.00
2018-10-12T11:40:26.435Z,2.23
2018-10-12T11:43:14.932Z,2.37
2018-10-12T11:45:42.843Z,2.20
2018-10-12T11:48:10.585Z,2.30
2018-10-12T11:50:38.282Z,1.95
2018-10-12T11:53:06.223Z,2.10
2018-10-12T11:55:33.846Z,2.50
2018-10-12T11:58:01.667Z,2.50
2018-10-12T12:00:29.294Z,2.40
2018-10-12T12:02:57.067Z,3.20
2018-10-12T12:05:25.133Z,2.50
2018-10-12T12:07:53.120Z,2.37
2018-10-12T12:10:20.776Z,2.50
2018-10-12T12:12:48.409Z,2.60
2018-10-12T12:15:16.180Z,2.23
2018-10-12T12:17:44.301Z,2.60
2018-10-12T12:20:12.217Z,2.70
2018-10-12T12:22:40.309Z,2.67
2018-10-12T12:25:08.013Z,2.40
2018-10-12T12:27:35.609Z,2.50
2018-10-12T12:30:03.168Z,2.80
2018-10-12T12:32:30.746Z,2.67
2018-10-12T12:34:58.477Z,2.37
2018-10-12T12:37:25.957Z,2.80
2018-10-12T12:39:53.510Z,2.22
2018-10-12T12:42:21.112Z,2.47
2018-10-12T12:44:48.747Z,2.47
2018-10-12T12:47:16.362Z,2.47
2018-10-12T12:49:43.940Z,2.30
2018-10-12T12:52:11.507Z,2.40
2018-10-12T12:54:39.481Z,2.80
2018-10-12T12:57:07.157Z,2.37
2018-10-12T12:59:34.818Z,2.27
2018-10-12T13:02:02.385Z,2.28
2018-10-12T13:04:29.957Z,2.60
2018-10-12T13:06:57.544Z,2.40
2018-10-12T13:09:25.236Z,2.13
2018-10-12T13:11:52.778Z,2.40
2018-10-12T13:14:20.339Z,2.17
2018-10-12T13:16:47.923Z,2.00
2018-10-12T13:19:15.476Z,2.13
2018-10-12T13:21:43.121Z,2.20
2018-10-12T13:24:10.764Z,2.20
2018-10-12T13:26:38.327Z,2.23
2018-10-12T13:29:06.085Z,2.50
2018-10-12T13:31:33.664Z,2.37
2018-10-12T13:34:01.292Z,2.10
2018-10-12T13:36:28.900Z,2.40
2018-10-12T13:38:56.708Z,2.50
2018-10-12T13:41:24.383Z,2.17
2018-10-12T13:43:52.030Z,2.53
2018-10-12T13:46:19.584Z,2.67
2018-10-12T13:48:47.151Z,2.70
2018-10-12T13:51:14.674Z,2.70
2018-10-12T13:53:42.380Z,2.23
2018-10-12T13:56:09.930Z,2.50
2018-10-12T13:58:37.593Z,2.47
2018-10-12T14:01:06.509Z,3.03
2018-10-12T14:03:34.046Z,2.43
2018-10-12T14:06:01.865Z,2.47
2018-10-12T14:08:29.477Z,2.50
2018-10-12T14:10:57.038Z,2.60
2018-10-12T14:13:24.651Z,2.70
2018-10-12T14:15:52.460Z,2.50
2018-10-12T14:18:20.199Z,3.00
2018-10-12T14:20:47.896Z,2.93
2018-10-12T14:23:15.621Z,3.08
2018-10-12T14:25:43.143Z,2.77
2018-10-12T14:28:10.709Z,3.00
2018-10-12T14:30:38.395Z,3.17
2018-10-12T14:33:06.184Z,2.60
2018-10-12T14:35:33.780Z,3.00
2018-10-12T14:38:01.593Z,3.80
2018-10-12T14:40:28.913Z,2.90
2018-10-12T14:42:56.442Z,3.00
2018-10-12T14:45:24.075Z,2.90
2018-10-12T14:47:51.605Z,2.93
2018-10-12T14:50:19.140Z,2.77
2018-10-12T14:52:46.798Z,2.93
2018-10-12T14:55:14.546Z,3.13
2018-10-12T14:57:42.072Z,2.87
2018-10-12T15:00:09.769Z,3.97
2018-10-12T15:02:37.301Z,3.70
2018-10-12T15:05:04.883Z,3.47
2018-10-12T15:07:32.423Z,3.13
2018-10-12T15:09:59.992Z,4.80
2018-10-12T15:12:27.656Z,7.50
2018-10-12T15:15:13.044Z,2.70
2018-10-12T15:17:40.769Z,3.40
2018-10-12T15:20:08.288Z,3.07
2018-10-12T15:22:35.858Z,3.10
2018-10-12T15:25:03.447Z,2.80
2018-10-12T15:27:31.126Z,3.00
2018-10-12T15:29:58.671Z,4.67
2018-10-12T15:32:26.418Z,3.37
2018-10-12T15:34:54.059Z,2.93
2018-10-12T15:37:21.655Z,3.20
2018-10-12T15:39:49.138Z,2.70
2018-10-12T15:42:16.680Z,3.07
2018-10-12T15:44:44.422Z,3.23
2018-10-12T15:47:12.093Z,3.10
2018-10-12T15:49:39.624Z,2.70
2018-10-12T15:52:07.485Z,2.80
2018-10-12T15:54:35.005Z,2.80
2018-10-12T15:57:02.634Z,2.87
2018-10-12T15:59:30.095Z,3.27
2018-10-12T16:01:57.838Z,2.83
2018-10-12T16:04:25.407Z,3.07
2018-10-12T16:06:52.941Z,2.63
2018-10-12T16:09:20.498Z,3.30
2018-10-12T16:11:48.016Z,2.83
2018-10-12T16:14:15.655Z,2.47
2018-10-12T16:16:43.243Z,2.83
2018-10-12T16:19:10.774Z,2.60
2018-10-12T16:21:38.365Z,3.17
2018-10-12T16:24:05.897Z,2.93
2018-10-12T16:26:33.488Z,2.70
2018-10-12T16:29:01.126Z,2.23
2018-10-12T16:31:28.655Z,2.70
2018-10-12T16:33:56.216Z,2.40
2018-10-12T16:36:23.865Z,3.03
2018-10-12T16:38:51.370Z,2.50
2018-10-12T16:41:18.927Z,2.70
2018-10-12T16:43:46.463Z,2.80
2018-10-12T16:46:14.073Z,2.40
2018-10-12T16:48:41.689Z,2.80
2018-10-12T16:51:09.226Z,3.23
2018-10-12T16:53:36.802Z,2.60
2018-10-12T16:56:04.359Z,2.40
2018-10-12T16:58:31.937Z,2.50
2018-10-12T17:00:59.504Z,2.60
2018-10-12T17:03:27.089Z,2.40
2018-10-12T17:05:54.671Z,2.90
2018-10-12T17:08:22.261Z,2.40
2018-10-12T17:10:49.855Z,2.70
2018-10-12T17:13:17.381Z,2.40
2018-10-12T17:15:44.942Z,2.50
2018-10-12T17:18:12.496Z,2.60
2018-10-12T17:20:40.142Z,2.50
2018-10-12T17:23:07.668Z,2.70
2018-10-12T17:25:35.400Z,2.90
2018-10-12T17:28:02.918Z,2.70
2018-10-12T17:30:30.510Z,2.53
2018-10-12T17:32:59.528Z,2.90
2018-10-12T17:35:27.061Z,4.03
2018-10-12T17:37:54.845Z,5.30
2018-10-12T17:40:22.537Z,4.67
2018-10-12T17:42:50.123Z,4.50
2018-10-12T17:45:17.832Z,3.30
2018-10-12T17:47:45.540Z,3.13
2018-10-12T17:50:13.123Z,2.87
2018-10-12T17:52:40.634Z,3.27
2018-10-12T17:55:08.217Z,3.00
2018-10-12T17:57:35.766Z,2.90
2018-10-12T18:00:03.630Z,3.10
2018-10-12T18:02:31.193Z,2.97
2018-10-12T18:04:58.736Z,3.30
2018-10-12T18:07:26.294Z,3.00
2018-10-12T18:09:53.864Z,3.00
2018-10-12T18:12:21.430Z,3.03
2018-10-12T18:14:48.956Z,2.70
2018-10-12T18:17:16.521Z,3.30
2018-10-12T18:19:44.175Z,3.30
2018-10-12T18:22:11.775Z,3.00
2018-10-12T18:24:39.318Z,2.85
2018-10-12T18:27:06.925Z,3.70
2018-10-12T18:29:34.616Z,2.97
2018-10-12T18:32:02.154Z,3.40
2018-10-12T18:34:29.730Z,2.83
2018-10-12T18:36:57.408Z,3.53
2018-10-12T18:39:25.027Z,3.40
2018-10-12T18:41:52.633Z,3.27
2018-10-12T18:44:20.171Z,4.33
2018-10-12T18:46:47.756Z,3.70
2018-10-12T18:49:15.314Z,4.10
2018-10-12T18:51:42.888Z,3.33
2018-10-12T18:54:10.442Z,3.37
2018-10-12T18:56:38.099Z,3.42
2018-10-12T18:59:05.632Z,3.67
2018-10-12T19:01:33.179Z,3.87
2018-10-12T19:04:00.755Z,3.28
2018-10-12T19:06:28.414Z,2.90
2018-10-12T19:08:55.934Z,3.90
2018-10-12T19:11:23.472Z,3.73
2018-10-12T19:13:51.270Z,5.00
2018-10-12T19:16:18.834Z,4.87
2018-10-12T19:18:46.344Z,5.40
2018-10-12T19:21:13.921Z,4.03
2018-10-12T19:23:41.467Z,3.70
2018-10-12T19:26:09.023Z,3.73
2018-10-12T19:28:36.592Z,3.43
2018-10-12T19:31:04.189Z,3.60
2018-10-12T19:33:31.791Z,3.40
2018-10-12T19:35:59.560Z,3.10
2018-10-12T19:38:27.153Z,3.57
2018-10-12T19:40:54.658Z,3.70
2018-10-12T19:43:22.193Z,3.70
2018-10-12T19:45:49.741Z,3.93
2018-10-12T19:48:17.306Z,4.07
2018-10-12T19:50:44.841Z,4.00
2018-10-12T19:53:12.356Z,4.22
2018-10-12T19:55:39.910Z,4.27
2018-10-12T19:58:07.482Z,4.00
2018-10-12T20:00:35.089Z,3.92
2018-10-12T20:03:02.606Z,3.90
2018-10-12T20:05:30.174Z,4.57
2018-10-12T20:07:57.709Z,3.77
2018-10-12T20:10:25.338Z,4.33
2018-10-12T20:12:52.859Z,4.07
2018-10-12T20:15:20.498Z,3.70
2018-10-12T20:17:48.132Z,3.90
2018-10-12T20:20:15.728Z,4.50
2018-10-12T20:22:43.239Z,3.80
2018-10-12T20:25:11.006Z,4.10
2018-10-12T20:27:38.841Z,4.10
2018-10-12T20:30:06.963Z,4.20
2018-10-12T20:32:34.748Z,4.57
2018-10-12T20:35:02.313Z,4.13
2018-10-12T20:37:30.089Z,4.37
2018-10-12T20:39:57.625Z,4.40
2018-10-12T20:42:25.213Z,4.27
2018-10-12T20:44:52.740Z,4.20
2018-10-12T20:47:20.274Z,4.30
2018-10-12T20:49:47.867Z,4.33
2018-10-12T20:52:15.428Z,6.63
2018-10-12T21:12:07.260Z,4.30
2018-10-12T21:14:35.262Z,4.43
2018-10-12T21:17:03.036Z,4.20
2018-10-12T21:19:30.624Z,4.03
2018-10-12T21:21:58.131Z,4.10
2018-10-12T21:33:03.892Z,4.30
2018-10-12T21:38:24.016Z,4.77
2018-10-12T21:40:51.745Z,4.00
2018-10-12T21:43:19.548Z,4.30
2018-10-12T21:45:47.137Z,4.37
2018-10-12T21:48:14.677Z,4.43
2018-10-12T21:50:42.303Z,4.00
2018-10-12T21:53:09.843Z,4.40
2018-10-12T21:55:37.418Z,4.40
2018-10-12T21:58:05.228Z,4.20
2018-10-12T22:00:32.779Z,3.80
2018-10-12T22:03:00.375Z,4.37
2018-10-12T22:05:27.911Z,4.47
2018-10-12T22:07:55.543Z,4.20
2018-10-12T22:10:23.757Z,4.20
2018-10-12T22:12:51.461Z,3.70
2018-10-12T22:15:19.035Z,4.40
2018-10-12T22:17:46.706Z,4.30
2018-10-12T22:23:26.380Z,3.70
2018-10-12T22:25:54.098Z,4.10
2018-10-12T22:51:22.865Z,4.00
2018-10-12T22:53:50.420Z,4.00
2018-10-12T22:56:18.151Z,3.50
2018-10-12T23:27:31.829Z,3.37
2018-10-12T23:29:59.398Z,3.50
2018-10-12T23:32:26.986Z,3.03
2018-10-12T23:34:54.556Z,3.30
2018-10-12T23:37:22.230Z,3.53
2018-10-12T23:39:50.092Z,3.10
2018-10-12T23:42:17.651Z,3.60
2018-10-12T23:44:45.261Z,3.13
2018-10-12T23:47:12.829Z,3.23
2018-10-12T23:49:40.575Z,3.53
2018-10-12T23:52:08.129Z,3.33
2018-10-12T23:54:35.658Z,3.17
2018-10-12T23:57:03.232Z,3.47
2018-10-12T23:59:31.005Z,3.63
